createdAt,value
2023-03-23T15:58:27.250Z,56.21
2023-03-23T16:00:30.737Z,56.24
2023-03-23T16:02:34.274Z,55.95
2023-03-23T16:04:37.029Z,56.37
2023-03-23T16:06:40.205Z,56.64
2023-03-23T16:08:44.213Z,56.50
2023-03-23T16:10:57.650Z,56.72
2023-03-23T16:13:00.361Z,56.63
2023-03-23T16:15:03.019Z,57.16
2023-03-23T16:17:05.968Z,57.24
2023-03-23T16:19:12.182Z,57.18
2023-03-23T16:21:14.830Z,57.26
2023-03-23T16:23:17.812Z,57.50
2023-03-23T16:25:22.022Z,57.47
2023-03-23T16:27:24.720Z,57.46
2023-03-23T16:29:43.397Z,57.42
2023-03-23T16:31:49.889Z,57.32
2023-03-23T16:33:52.522Z,57.64
2023-03-23T16:35:55.229Z,57.58
2023-03-23T16:38:07.440Z,57.62
2023-03-23T16:40:13.421Z,57.96
2023-03-23T16:42:17.376Z,58.12
2023-03-23T16:44:20.308Z,58.41
2023-03-23T16:46:24.144Z,58.67
2023-03-23T16:48:27.140Z,59.06
2023-03-23T16:50:30.591Z,58.91
2023-03-23T16:52:33.579Z,59.26
2023-03-23T16:54:36.463Z,59.24
2023-03-23T16:56:39.446Z,59.32
2023-03-23T16:58:43.434Z,59.62
2023-03-23T17:00:48.482Z,59.74
2023-03-23T17:02:52.849Z,60.14
2023-03-23T17:04:55.461Z,60.05
2023-03-23T17:06:59.318Z,60.60
2023-03-23T17:09:01.993Z,60.00
2023-03-23T17:11:04.735Z,60.11
2023-03-23T17:13:07.786Z,60.14
2023-03-23T17:15:12.881Z,60.93
2023-03-23T17:17:15.602Z,60.59
2023-03-23T17:19:18.373Z,60.95
2023-03-23T17:21:25.475Z,60.93
2023-03-23T17:23:28.311Z,60.99
2023-03-23T17:25:31.899Z,61.49
2023-03-23T17:27:35.183Z,62.03
2023-03-23T17:29:38.035Z,62.03
2023-03-23T17:31:42.225Z,62.78
2023-03-23T17:33:45.007Z,63.14
2023-03-23T17:35:51.462Z,63.10
2023-03-23T17:37:54.172Z,63.23
2023-03-23T17:39:56.968Z,63.34
2023-03-23T17:42:00.344Z,63.24
2023-03-23T17:44:03.044Z,63.63
2023-03-23T17:46:06.647Z,63.44
2023-03-23T17:48:10.822Z,63.64
2023-03-23T17:50:14.122Z,63.94
2023-03-23T17:52:16.768Z,64.02
2023-03-23T17:54:19.553Z,64.31
2023-03-23T17:56:22.352Z,64.28
2023-03-23T17:58:26.441Z,63.70
2023-03-23T18:00:29.094Z,63.58
2023-03-23T18:02:32.003Z,63.85
2023-03-23T18:04:36.024Z,64.00
2023-03-23T18:06:38.657Z,64.54
2023-03-23T18:08:41.313Z,64.36
2023-03-23T18:10:44.318Z,64.56
2023-03-23T18:12:50.155Z,63.68
2023-03-23T18:14:56.414Z,64.05
2023-03-23T18:16:59.028Z,64.17
2023-03-23T18:19:01.922Z,64.41
2023-03-23T18:21:08.505Z,64.72
2023-03-23T18:23:11.978Z,64.70
2023-03-23T18:25:14.627Z,64.55
2023-03-23T18:27:17.420Z,64.74
2023-03-23T18:29:20.082Z,64.48
2023-03-23T18:31:23.201Z,64.91
2023-03-23T18:33:25.883Z,64.89
2023-03-23T18:35:28.565Z,64.84
2023-03-23T18:37:32.658Z,65.40
2023-03-23T18:39:35.310Z,65.23
2023-03-23T18:41:38.029Z,65.32
2023-03-23T18:43:40.968Z,65.63
2023-03-23T18:45:49.115Z,65.83
2023-03-23T18:47:54.235Z,65.62
2023-03-23T18:49:57.191Z,65.97
2023-03-23T18:52:00.033Z,66.21
2023-03-23T18:54:04.296Z,65.85
2023-03-23T18:56:10.335Z,66.19
2023-03-23T18:58:13.826Z,66.12
2023-03-23T19:00:17.778Z,66.20
2023-03-23T19:02:21.016Z,64.88
2023-03-23T19:04:23.729Z,65.28
2023-03-23T19:06:28.064Z,65.62
2023-03-23T19:08:31.295Z,65.89
2023-03-23T19:10:37.720Z,65.17
2023-03-23T19:12:40.486Z,65.26
2023-03-23T19:14:43.891Z,65.53
2023-03-23T19:16:46.581Z,65.64
2023-03-23T19:18:49.334Z,65.48
2023-03-23T19:22:59.620Z,65.79
2023-03-23T19:25:02.251Z,65.63
2023-03-23T19:27:06.830Z,64.79
2023-03-23T19:31:19.634Z,64.65
2023-03-23T19:33:22.712Z,64.92
2023-03-23T19:35:26.578Z,65.12
2023-03-23T19:37:34.333Z,65.02
2023-03-23T19:39:37.440Z,64.02
2023-03-23T19:41:41.825Z,64.48
2023-03-23T19:43:46.012Z,64.20
2023-03-23T19:45:49.913Z,63.94
2023-03-23T19:47:52.587Z,64.26
2023-03-23T19:49:56.435Z,64.80
2023-03-23T19:52:06.320Z,64.88
2023-03-23T19:54:13.754Z,65.28
2023-03-23T19:56:18.598Z,65.47
2023-03-23T19:58:21.462Z,65.90
2023-03-23T20:00:25.453Z,65.88
2023-03-23T20:02:28.105Z,66.02
2023-03-23T20:04:31.017Z,65.91
2023-03-23T20:06:33.732Z,65.95
2023-03-23T20:08:37.344Z,65.73
2023-03-23T20:10:41.660Z,66.46
2023-03-23T20:12:44.273Z,66.61
2023-03-23T20:14:47.115Z,66.46
2023-03-23T20:16:52.770Z,66.66
2023-03-23T20:18:59.630Z,66.91
2023-03-23T20:21:04.974Z,67.16
2023-03-23T20:23:08.673Z,66.99
2023-03-23T20:25:12.256Z,67.01
2023-03-23T20:27:15.721Z,67.41
2023-03-23T20:29:18.364Z,67.64
2023-03-23T20:31:24.235Z,67.61
2023-03-23T20:33:30.485Z,67.73
2023-03-23T20:35:33.154Z,67.43
2023-03-23T20:37:38.053Z,68.52
2023-03-23T20:39:41.724Z,68.14
2023-03-23T20:41:44.443Z,68.21
2023-03-23T20:43:47.188Z,67.90
2023-03-23T20:45:49.835Z,68.29
2023-03-23T20:47:53.661Z,67.68
2023-03-23T20:49:58.442Z,67.97
2023-03-23T20:52:01.867Z,67.88
2023-03-23T20:54:05.930Z,68.08
2023-03-23T20:56:09.611Z,67.99
2023-03-23T20:58:12.197Z,67.84
2023-03-23T21:00:17.941Z,68.27
2023-03-23T21:02:21.549Z,68.33
2023-03-23T21:04:27.362Z,68.29
2023-03-23T21:06:33.404Z,68.67
2023-03-23T21:08:37.777Z,68.56
2023-03-23T21:10:40.941Z,68.83
2023-03-23T21:12:43.621Z,68.69
2023-03-23T21:14:46.288Z,68.69
2023-03-23T21:16:49.247Z,68.45
2023-03-23T21:18:52.137Z,68.89
2023-03-23T21:20:56.906Z,69.41
2023-03-23T21:23:02.020Z,68.91
2023-03-23T21:25:04.988Z,69.00
2023-03-23T21:27:08.097Z,69.32
2023-03-23T21:29:11.876Z,69.40
2023-03-23T21:31:17.003Z,69.52
2023-03-23T21:33:19.988Z,69.71
2023-03-23T21:35:23.093Z,69.56
2023-03-23T21:37:26.374Z,69.86
2023-03-23T21:39:30.421Z,70.08
2023-03-23T21:41:42.637Z,70.20
2023-03-23T21:43:46.627Z,70.16
2023-03-23T21:45:49.257Z,70.27
2023-03-23T21:47:57.813Z,69.96
2023-03-23T21:50:00.549Z,69.83
2023-03-23T21:52:03.785Z,69.58
2023-03-23T21:54:06.589Z,69.52
2023-03-23T21:56:12.514Z,69.71
2023-03-23T21:58:15.395Z,69.51
2023-03-23T22:00:18.856Z,69.82
2023-03-23T22:02:21.820Z,69.58
2023-03-23T22:04:25.337Z,69.35
2023-03-23T22:06:28.551Z,69.94
2023-03-23T22:08:31.392Z,69.38
2023-03-23T22:10:34.224Z,69.29
2023-03-23T22:12:39.146Z,69.48
2023-03-23T22:14:42.001Z,69.69
2023-03-23T22:16:44.728Z,69.52
2023-03-23T22:18:48.670Z,69.57
2023-03-23T22:20:52.114Z,69.72
2023-03-23T22:22:54.901Z,69.09
2023-03-23T22:24:57.676Z,69.20
2023-03-23T22:27:00.627Z,69.51
2023-03-23T22:29:05.050Z,68.95
2023-03-23T22:31:13.160Z,69.43
2023-03-23T22:33:19.907Z,69.99
2023-03-23T22:35:23.091Z,69.30
2023-03-23T22:37:26.003Z,69.29
2023-03-23T22:39:28.862Z,69.37
2023-03-23T22:41:33.803Z,69.98
2023-03-23T22:43:37.699Z,69.82
2023-03-23T22:45:41.949Z,69.09
2023-03-23T22:47:44.817Z,70.16
2023-03-23T22:49:47.636Z,70.44
2023-03-23T22:51:50.487Z,70.74
2023-03-23T22:53:53.230Z,70.83
2023-03-23T22:55:58.299Z,70.66
2023-03-23T22:58:01.191Z,70.69
2023-03-23T23:00:07.649Z,70.54
2023-03-23T23:02:11.735Z,70.43
2023-03-23T23:04:14.665Z,70.83
2023-03-23T23:06:18.680Z,70.33
2023-03-23T23:08:22.262Z,71.05
2023-03-23T23:10:24.954Z,70.53
2023-03-23T23:12:29.900Z,70.50
2023-03-23T23:14:32.613Z,70.29
2023-03-23T23:16:35.499Z,71.19
2023-03-23T23:18:40.125Z,70.78
2023-03-23T23:20:43.381Z,71.51
2023-03-23T23:22:46.305Z,71.45
2023-03-23T23:24:49.026Z,71.63
2023-03-23T23:26:51.805Z,73.26
2023-03-23T23:28:54.575Z,73.84
2023-03-23T23:30:58.244Z,75.40
2023-03-23T23:33:01.780Z,77.31
2023-03-23T23:35:07.354Z,77.62
2023-03-23T23:37:10.328Z,78.04
2023-03-23T23:39:13.072Z,77.03
2023-03-23T23:41:16.200Z,76.77
2023-03-23T23:43:19.006Z,77.45
2023-03-23T23:45:21.854Z,77.99
2023-03-23T23:47:24.638Z,78.81
2023-03-23T23:49:28.856Z,82.68
2023-03-23T23:51:33.678Z,82.89
2023-03-23T23:53:36.829Z,83.40
2023-03-23T23:55:40.044Z,82.86
2023-03-23T23:57:43.066Z,82.88
2023-03-23T23:59:45.943Z,85.13
